createdAt,value
2022-09-23T00:01:21.889Z,13.41
2022-09-23T00:03:50.956Z,13.36
2022-09-23T00:06:20.451Z,13.33
2022-09-23T00:08:49.460Z,13.31
2022-09-23T00:11:19.537Z,13.24
2022-09-23T00:13:49.483Z,13.28
2022-09-23T00:16:22.201Z,13.23
2022-09-23T00:18:50.521Z,13.20
2022-09-23T00:21:19.523Z,13.13
2022-09-23T00:23:47.326Z,13.04
2022-09-23T00:26:17.004Z,13.10
2022-09-23T00:28:44.999Z,13.08
2022-09-23T00:31:15.508Z,13.08
2022-09-23T00:33:44.884Z,13.13
2022-09-23T00:36:16.110Z,13.15
2022-09-23T00:38:44.529Z,13.10
2022-09-23T00:41:14.441Z,12.99
2022-09-23T00:43:43.956Z,13.00
2022-09-23T00:46:17.584Z,12.99
2022-09-23T00:48:47.224Z,12.96
2022-09-23T00:51:19.279Z,12.89
2022-09-23T00:53:49.014Z,12.85
2022-09-23T00:56:17.334Z,12.85
2022-09-23T00:58:47.279Z,12.93
2022-09-23T01:01:15.080Z,12.97
2022-09-23T01:03:45.377Z,12.99
2022-09-23T01:06:15.239Z,12.93
2022-09-23T01:08:46.073Z,12.91
2022-09-23T01:11:25.947Z,12.87
2022-09-23T01:14:02.575Z,12.80
2022-09-23T01:16:37.475Z,12.82
2022-09-23T01:19:22.374Z,12.78
2022-09-23T01:21:57.016Z,12.89
2022-09-23T01:24:48.120Z,12.87
2022-09-23T01:27:26.647Z,12.88
2022-09-23T01:30:11.006Z,12.85
2022-09-23T01:33:05.617Z,12.92
2022-09-23T01:35:56.517Z,12.97
2022-09-23T01:38:36.257Z,13.02
2022-09-23T01:41:13.566Z,13.08
2022-09-23T01:43:49.286Z,13.09
2022-09-23T01:46:22.607Z,13.13
2022-09-23T01:48:57.409Z,13.06
2022-09-23T01:51:28.088Z,12.99
2022-09-23T01:54:03.993Z,12.99
2022-09-23T01:56:36.750Z,12.97
2022-09-23T01:59:12.533Z,12.94
2022-09-23T02:01:45.092Z,12.89
2022-09-23T02:04:20.463Z,12.83
2022-09-23T02:06:53.235Z,12.87
2022-09-23T02:09:25.706Z,12.81
2022-09-23T02:12:00.437Z,12.83
2022-09-23T02:14:34.219Z,12.87
2022-09-23T02:17:08.816Z,12.88
2022-09-23T02:19:44.523Z,12.91
2022-09-23T02:22:17.886Z,12.86
2022-09-23T02:24:45.843Z,12.80
2022-09-23T02:27:22.327Z,12.77
2022-09-23T02:29:56.493Z,12.72
2022-09-23T02:32:29.222Z,12.75
2022-09-23T02:35:03.824Z,12.85
2022-09-23T02:37:40.934Z,12.78
2022-09-23T02:40:15.514Z,12.74
2022-09-23T02:43:06.010Z,12.79
2022-09-23T02:45:35.448Z,12.78
2022-09-23T02:48:08.019Z,12.80
2022-09-23T02:50:38.544Z,12.80
2022-09-23T02:53:08.462Z,12.82
2022-09-23T02:55:36.321Z,12.78
2022-09-23T02:58:05.507Z,12.74
2022-09-23T03:00:45.379Z,12.72
2022-09-23T03:03:24.180Z,12.71
2022-09-23T03:05:57.542Z,12.64
2022-09-23T03:08:36.737Z,12.70
2022-09-23T03:11:07.440Z,12.67
2022-09-23T03:13:51.077Z,12.69
2022-09-23T03:16:30.926Z,12.66
2022-09-23T03:19:13.302Z,12.66
2022-09-23T03:21:47.826Z,12.66
2022-09-23T03:24:16.807Z,12.64
2022-09-23T03:26:48.071Z,12.60
2022-09-23T03:29:17.845Z,12.58
2022-09-23T03:31:45.934Z,12.61
2022-09-23T03:34:17.683Z,12.59
2022-09-23T03:36:53.330Z,12.59
2022-09-23T03:39:30.839Z,12.50
2022-09-23T03:42:01.829Z,12.50
2022-09-23T03:44:30.247Z,12.51
2022-09-23T03:47:00.354Z,12.38
2022-09-23T03:49:32.935Z,12.37
2022-09-23T03:52:03.150Z,12.37
2022-09-23T03:54:30.847Z,12.37
2022-09-23T03:56:59.306Z,12.35
2022-09-23T03:59:27.472Z,12.37
2022-09-23T04:01:55.439Z,12.28
2022-09-23T04:04:23.064Z,12.22
2022-09-23T04:06:50.651Z,12.25
2022-09-23T04:09:19.553Z,12.20
2022-09-23T04:11:47.113Z,12.16
2022-09-23T04:14:15.556Z,12.15
2022-09-23T04:16:43.209Z,12.12
2022-09-23T04:19:11.790Z,12.13
2022-09-23T04:21:40.314Z,12.08
2022-09-23T04:24:09.278Z,12.04
2022-09-23T04:26:39.110Z,12.05
2022-09-23T04:29:07.597Z,11.98
2022-09-23T04:31:35.806Z,11.95
2022-09-23T04:34:03.727Z,11.94
2022-09-23T04:36:31.328Z,11.92
2022-09-23T04:38:58.998Z,11.96
2022-09-23T04:41:26.909Z,11.99
2022-09-23T04:43:57.357Z,11.91
2022-09-23T04:46:25.259Z,11.93
2022-09-23T04:48:52.964Z,11.94
2022-09-23T04:51:22.317Z,11.99
2022-09-23T04:53:52.297Z,11.91
2022-09-23T04:56:22.396Z,11.84
2022-09-23T04:58:51.471Z,11.77
2022-09-23T05:01:24.724Z,11.77
2022-09-23T05:03:53.957Z,11.86
2022-09-23T05:06:22.592Z,11.87
2022-09-23T05:08:52.184Z,11.85
2022-09-23T05:11:20.383Z,11.82
2022-09-23T05:13:48.238Z,11.75
2022-09-23T05:16:16.274Z,11.68
2022-09-23T05:18:46.437Z,11.70
2022-09-23T05:21:15.885Z,11.67
2022-09-23T05:23:47.931Z,11.68
2022-09-23T05:26:16.602Z,11.66
2022-09-23T05:28:44.397Z,11.69
2022-09-23T05:31:19.384Z,11.61
2022-09-23T05:33:51.753Z,11.57
2022-09-23T05:36:20.622Z,11.60
2022-09-23T05:38:49.855Z,11.62
2022-09-23T05:41:18.703Z,11.64
2022-09-23T05:43:47.523Z,11.66
2022-09-23T05:46:17.321Z,11.64
2022-09-23T05:48:45.804Z,11.66
2022-09-23T05:51:17.199Z,11.72
2022-09-23T05:53:45.758Z,11.77
2022-09-23T05:56:13.875Z,11.78
2022-09-23T05:58:41.723Z,11.78
2022-09-23T06:01:13.607Z,11.75
2022-09-23T06:03:41.753Z,11.75
2022-09-23T06:06:14.661Z,11.92
2022-09-23T06:08:43.763Z,11.96
2022-09-23T06:11:12.310Z,11.99
2022-09-23T06:13:40.783Z,12.05
2022-09-23T06:16:10.444Z,12.09
2022-09-23T06:18:40.120Z,12.13
2022-09-23T06:21:08.574Z,12.18
2022-09-23T06:23:39.045Z,12.22
2022-09-23T06:26:11.446Z,12.23
2022-09-23T06:28:40.777Z,12.26
2022-09-23T06:31:13.507Z,12.34
2022-09-23T06:33:41.967Z,12.35
2022-09-23T06:36:10.649Z,12.41
2022-09-23T06:38:39.942Z,12.43
2022-09-23T06:41:09.050Z,12.49
2022-09-23T06:43:36.647Z,12.48
2022-09-23T06:46:06.135Z,12.52
2022-09-23T06:48:35.369Z,12.59
2022-09-23T06:51:07.094Z,12.59
2022-09-23T06:53:35.293Z,12.57
2022-09-23T06:56:04.694Z,12.62
2022-09-23T06:58:34.970Z,12.67
2022-09-23T07:01:03.202Z,12.65
2022-09-23T07:03:31.702Z,12.67
2022-09-23T07:06:00.277Z,12.73
2022-09-23T07:08:30.158Z,12.80
2022-09-23T07:10:59.602Z,12.85
2022-09-23T07:13:28.527Z,12.84
2022-09-23T07:16:00.227Z,12.91
2022-09-23T07:18:35.604Z,12.93
2022-09-23T07:21:09.275Z,12.97
2022-09-23T07:23:37.892Z,13.01
2022-09-23T07:26:07.741Z,13.09
2022-09-23T07:28:36.043Z,13.08
2022-09-23T07:31:10.990Z,13.12
2022-09-23T07:33:44.010Z,13.08
2022-09-23T07:36:13.972Z,13.09
2022-09-23T07:38:45.456Z,13.19
2022-09-23T07:41:16.071Z,13.23
2022-09-23T07:43:44.277Z,13.29
2022-09-23T07:46:16.261Z,13.36
2022-09-23T07:48:45.706Z,13.46
2022-09-23T07:51:17.625Z,13.50
2022-09-23T07:53:48.204Z,13.56
2022-09-23T07:56:16.307Z,13.53
2022-09-23T07:58:43.993Z,13.56
2022-09-23T08:01:13.823Z,13.62
2022-09-23T08:03:41.420Z,13.70
2022-09-23T08:06:12.354Z,13.76
2022-09-23T08:08:43.462Z,13.85
2022-09-23T08:11:14.183Z,13.88
2022-09-23T08:13:42.250Z,14.00
2022-09-23T08:16:10.560Z,14.13
2022-09-23T08:18:39.613Z,14.31
2022-09-23T08:21:07.187Z,14.67
2022-09-23T08:23:34.749Z,14.81
2022-09-23T08:26:04.999Z,15.18
2022-09-23T08:28:35.081Z,15.56
2022-09-23T08:31:02.810Z,15.98
2022-09-23T08:33:30.853Z,16.99
2022-09-23T08:36:02.529Z,18.82
2022-09-23T08:38:30.805Z,20.60
2022-09-23T08:41:08.885Z,20.80
2022-09-23T08:43:39.601Z,20.19
2022-09-23T08:46:11.883Z,19.71
2022-09-23T08:48:44.129Z,21.37
2022-09-23T08:51:16.915Z,25.22
2022-09-23T08:53:45.655Z,28.71
2022-09-23T08:56:15.827Z,31.41
2022-09-23T08:58:54.815Z,32.62
2022-09-23T09:01:26.979Z,33.64
2022-09-23T09:03:57.145Z,34.90
2022-09-23T09:06:31.975Z,35.12
2022-09-23T09:09:02.439Z,34.97
2022-09-23T09:11:36.658Z,34.67
2022-09-23T09:14:19.162Z,33.53
2022-09-23T09:17:00.106Z,31.55
2022-09-23T09:19:52.091Z,28.47
2022-09-23T09:22:25.967Z,25.68
2022-09-23T09:24:58.908Z,23.52
2022-09-23T09:27:26.531Z,21.94
2022-09-23T09:29:56.430Z,20.93
2022-09-23T09:32:34.680Z,20.11
2022-09-23T09:35:08.966Z,19.44
2022-09-23T09:37:42.309Z,19.01
2022-09-23T09:40:13.003Z,18.64
2022-09-23T09:42:42.367Z,18.30
2022-09-23T09:45:19.666Z,18.05
2022-09-23T09:47:57.319Z,17.91
2022-09-23T09:50:44.340Z,17.71
2022-09-23T09:53:24.707Z,17.58
2022-09-23T09:56:06.496Z,17.53
2022-09-23T09:58:43.833Z,17.45
2022-09-23T10:01:20.287Z,17.48
2022-09-23T10:03:49.890Z,17.50
2022-09-23T10:06:20.763Z,17.55
2022-09-23T10:09:05.745Z,17.72
2022-09-23T10:11:33.781Z,17.83
2022-09-23T10:14:06.073Z,17.93
2022-09-23T10:16:35.281Z,17.85
2022-09-23T10:19:04.331Z,17.78
2022-09-23T10:21:37.933Z,17.59
2022-09-23T10:24:08.789Z,17.52
2022-09-23T10:26:52.082Z,17.33
2022-09-23T10:29:25.937Z,17.39
2022-09-23T10:32:19.919Z,17.40
2022-09-23T10:34:52.434Z,17.33
2022-09-23T10:37:32.541Z,17.31
2022-09-23T10:40:30.313Z,17.36
2022-09-23T10:43:33.450Z,17.61
2022-09-23T10:46:23.867Z,18.15
2022-09-23T10:49:08.905Z,18.47
2022-09-23T10:51:45.469Z,18.77
2022-09-23T10:54:22.475Z,18.87
2022-09-23T10:57:01.914Z,19.34
2022-09-23T10:59:50.084Z,19.51
2022-09-23T11:02:41.855Z,19.39
2022-09-23T11:05:20.825Z,19.43
2022-09-23T11:07:57.375Z,19.38
2022-09-23T11:10:49.767Z,19.44
2022-09-23T11:13:36.130Z,19.53
2022-09-23T11:16:12.273Z,19.56
2022-09-23T11:18:53.259Z,19.54
2022-09-23T11:21:38.324Z,19.67
2022-09-23T11:24:24.853Z,19.66
2022-09-23T11:27:07.417Z,19.95
2022-09-23T11:30:11.374Z,20.57
2022-09-23T11:33:15.052Z,21.33
2022-09-23T11:35:47.705Z,21.55
2022-09-23T11:38:21.249Z,21.42
2022-09-23T11:40:54.783Z,21.20
2022-09-23T11:43:24.495Z,20.98
2022-09-23T11:45:59.545Z,20.79
2022-09-23T11:48:34.860Z,20.70
2022-09-23T11:51:05.940Z,20.46
2022-09-23T11:53:41.711Z,20.34
2022-09-23T11:56:26.308Z,20.15
2022-09-23T11:59:04.533Z,20.04
2022-09-23T12:01:39.607Z,20.00
2022-09-23T12:04:21.079Z,19.94
2022-09-23T12:06:52.571Z,19.90
2022-09-23T12:09:40.912Z,19.96
2022-09-23T12:12:18.567Z,20.03
2022-09-23T12:14:57.482Z,19.91
2022-09-23T12:17:58.294Z,19.71
2022-09-23T12:20:43.618Z,19.65
2022-09-23T12:23:27.364Z,19.65
2022-09-23T12:26:01.984Z,19.79
2022-09-23T12:28:36.053Z,19.86
2022-09-23T12:31:06.826Z,19.74
2022-09-23T12:33:37.323Z,19.66
2022-09-23T12:36:06.854Z,19.61
2022-09-23T12:38:37.383Z,19.59
2022-09-23T12:41:21.939Z,19.57
2022-09-23T12:43:54.831Z,19.59
2022-09-23T12:46:25.924Z,19.64
2022-09-23T12:49:03.560Z,19.67
2022-09-23T12:51:32.198Z,19.72
2022-09-23T12:54:16.199Z,19.74
2022-09-23T12:57:12.757Z,19.66
2022-09-23T13:00:14.571Z,19.58
2022-09-23T13:02:44.587Z,19.59
2022-09-23T13:05:40.511Z,19.58
2022-09-23T13:08:13.619Z,19.56
2022-09-23T13:10:45.891Z,19.51
2022-09-23T13:13:22.469Z,19.49
2022-09-23T13:15:50.236Z,19.54
2022-09-23T13:18:45.744Z,19.51
2022-09-23T13:21:20.104Z,19.51
2022-09-23T13:24:19.242Z,19.52
2022-09-23T13:26:48.403Z,19.60
2022-09-23T13:29:20.287Z,19.71
2022-09-23T13:31:48.452Z,19.76
2022-09-23T13:34:20.519Z,19.65
2022-09-23T13:36:49.914Z,19.59
2022-09-23T13:39:23.238Z,19.64
2022-09-23T13:41:53.562Z,19.70
2022-09-23T13:44:22.308Z,19.69
2022-09-23T13:46:52.691Z,19.55
2022-09-23T13:49:24.464Z,19.61
2022-09-23T13:51:54.415Z,19.76
2022-09-23T13:54:28.891Z,19.66
2022-09-23T13:56:57.359Z,19.77
2022-09-23T13:59:28.063Z,19.81
2022-09-23T14:02:08.099Z,19.88
2022-09-23T14:04:36.052Z,19.95
2022-09-23T14:07:05.677Z,19.98
2022-09-23T14:09:35.615Z,20.04
2022-09-23T14:12:06.482Z,19.88
2022-09-23T14:14:37.435Z,19.83
2022-09-23T14:17:07.342Z,19.74
2022-09-23T14:19:36.950Z,19.68
2022-09-23T14:22:10.374Z,19.60
2022-09-23T14:24:40.143Z,19.48
2022-09-23T14:27:15.834Z,19.44
2022-09-23T14:29:45.417Z,19.50
2022-09-23T14:32:15.366Z,19.47
2022-09-23T14:34:45.860Z,19.41
2022-09-23T14:37:41.778Z,19.48
2022-09-23T14:40:15.512Z,19.46
2022-09-23T14:42:46.428Z,19.43
2022-09-23T14:45:17.766Z,19.42
2022-09-23T14:47:49.461Z,19.48
2022-09-23T14:50:40.631Z,19.42
2022-09-23T14:53:35.684Z,19.41
2022-09-23T14:56:25.341Z,19.36
2022-09-23T14:58:55.386Z,19.39
2022-09-23T15:01:33.925Z,19.32
2022-09-23T15:04:12.614Z,19.29
2022-09-23T15:06:42.599Z,19.27
2022-09-23T15:09:20.050Z,19.24
2022-09-23T15:11:48.088Z,19.22
2022-09-23T15:14:36.678Z,19.20
2022-09-23T15:17:07.318Z,19.26
2022-09-23T15:19:37.339Z,19.23
2022-09-23T15:22:09.554Z,19.22
2022-09-23T15:24:42.554Z,19.20
2022-09-23T15:27:27.846Z,19.16
2022-09-23T15:29:58.762Z,19.06
2022-09-23T15:32:26.342Z,19.02
2022-09-23T15:34:54.047Z,19.06
2022-09-23T15:37:21.675Z,19.01
2022-09-23T15:39:51.002Z,19.03
2022-09-23T15:42:18.747Z,19.05
2022-09-23T15:44:46.311Z,19.00
2022-09-23T15:47:18.801Z,18.96
2022-09-23T15:49:48.045Z,19.04
2022-09-23T15:52:17.636Z,18.95
2022-09-23T15:54:46.020Z,18.93
2022-09-23T15:57:14.999Z,18.91
2022-09-23T15:59:43.123Z,18.85
2022-09-23T16:02:19.045Z,18.84
2022-09-23T16:04:52.559Z,18.84
2022-09-23T16:07:21.246Z,18.81
2022-09-23T16:09:48.850Z,18.79
2022-09-23T16:12:18.091Z,18.79
2022-09-23T16:14:45.839Z,18.71
2022-09-23T16:17:14.839Z,18.69
2022-09-23T16:19:43.477Z,18.70
2022-09-23T16:22:15.400Z,18.70
2022-09-23T16:24:43.157Z,18.71
2022-09-23T16:27:13.793Z,18.65
2022-09-23T16:29:42.781Z,18.62
2022-09-23T16:32:10.875Z,18.59
2022-09-23T16:34:38.515Z,18.64
2022-09-23T16:37:06.830Z,18.58
2022-09-23T16:39:34.560Z,18.56
2022-09-23T16:42:02.267Z,18.56
2022-09-23T16:44:29.924Z,18.51
2022-09-23T16:46:58.806Z,18.48
2022-09-23T16:49:27.258Z,18.41
2022-09-23T16:51:54.923Z,18.36
2022-09-23T16:54:23.848Z,18.30
2022-09-23T16:56:52.288Z,18.32
2022-09-23T16:59:19.928Z,18.29
2022-09-23T17:02:05.247Z,18.24
2022-09-23T17:04:34.256Z,18.17
2022-09-23T17:07:01.909Z,18.13
2022-09-23T17:09:30.267Z,18.09
2022-09-23T17:12:05.789Z,18.09
2022-09-23T17:14:33.647Z,18.05
2022-09-23T17:17:01.322Z,18.03
2022-09-23T17:19:29.107Z,17.97
2022-09-23T17:21:58.048Z,17.95
2022-09-23T17:24:25.592Z,17.92
2022-09-23T17:26:53.631Z,17.88
2022-09-23T17:29:21.460Z,17.86
2022-09-23T17:31:49.205Z,17.81
2022-09-23T17:34:19.090Z,17.76
2022-09-23T17:36:46.982Z,17.72
2022-09-23T17:39:16.557Z,17.68
2022-09-23T17:41:45.462Z,17.61
2022-09-23T17:44:14.125Z,17.58
2022-09-23T17:46:41.760Z,17.53
2022-09-23T17:49:09.638Z,17.50
2022-09-23T17:51:37.330Z,17.44
2022-09-23T17:54:05.468Z,17.43
2022-09-23T17:56:34.491Z,17.38
2022-09-23T17:59:03.137Z,17.35
2022-09-23T18:01:31.280Z,17.33
2022-09-23T18:04:00.326Z,17.30
2022-09-23T18:06:31.525Z,17.25
2022-09-23T18:09:01.472Z,17.22
2022-09-23T18:11:30.790Z,17.23
2022-09-23T18:14:01.578Z,17.23
2022-09-23T18:16:31.175Z,17.24
2022-09-23T18:19:00.980Z,17.18
2022-09-23T18:21:31.566Z,17.15
2022-09-23T18:24:28.179Z,17.12
2022-09-23T18:26:49.620Z,17.13
2022-09-23T18:29:19.603Z,17.13
2022-09-23T18:31:49.123Z,17.12
2022-09-23T18:34:18.291Z,17.12
2022-09-23T18:36:46.177Z,17.11
2022-09-23T18:39:13.790Z,17.12
2022-09-23T18:41:41.657Z,17.11
2022-09-23T18:44:09.906Z,17.05
2022-09-23T18:46:39.315Z,17.02
2022-09-23T18:49:24.510Z,17.00
2022-09-23T18:51:54.527Z,17.01
2022-09-23T18:54:23.389Z,17.02
2022-09-23T18:56:52.604Z,17.03
2022-09-23T18:59:23.759Z,17.02
2022-09-23T19:01:54.776Z,17.01
2022-09-23T19:04:24.389Z,17.03
2022-09-23T19:06:53.546Z,17.03
2022-09-23T19:09:21.178Z,17.00
2022-09-23T19:11:52.068Z,17.02
2022-09-23T19:14:22.641Z,17.01
2022-09-23T19:16:50.933Z,17.00
2022-09-23T19:19:19.952Z,17.00
2022-09-23T19:21:47.664Z,17.01
2022-09-23T19:24:19.813Z,17.01
2022-09-23T19:26:48.439Z,16.97
2022-09-23T19:29:19.371Z,16.92
2022-09-23T19:31:47.135Z,16.88
2022-09-23T19:34:17.606Z,16.90
2022-09-23T19:36:48.707Z,16.92
2022-09-23T19:39:17.907Z,16.90
2022-09-23T19:41:46.013Z,16.92
2022-09-23T19:44:14.155Z,16.92
2022-09-23T19:46:45.074Z,16.89
2022-09-23T19:49:13.653Z,16.90
2022-09-23T19:51:43.900Z,16.88
2022-09-23T19:54:14.069Z,16.88
2022-09-23T19:56:41.690Z,16.85
2022-09-23T19:59:09.476Z,16.83
2022-09-23T20:01:37.371Z,16.78
2022-09-23T20:04:05.607Z,16.74
2022-09-23T20:06:36.122Z,16.73
2022-09-23T20:09:05.346Z,16.66
2022-09-23T20:11:34.558Z,16.63
2022-09-23T20:14:04.866Z,16.57
2022-09-23T20:16:34.881Z,16.58
2022-09-23T20:19:04.026Z,16.45
2022-09-23T20:21:33.456Z,16.47
2022-09-23T20:24:01.839Z,16.54
2022-09-23T20:26:46.992Z,16.52
2022-09-23T20:29:15.954Z,16.43
2022-09-23T20:31:44.467Z,16.33
2022-09-23T20:34:12.220Z,16.28
2022-09-23T20:36:41.251Z,16.21
2022-09-23T20:39:09.931Z,16.08
2022-09-23T20:41:39.504Z,15.93
2022-09-23T20:44:12.110Z,15.83
2022-09-23T20:46:47.485Z,15.73
2022-09-23T20:49:16.131Z,15.74
2022-09-23T20:51:43.724Z,15.82
2022-09-23T20:54:12.018Z,15.80
2022-09-23T20:56:39.634Z,15.83
2022-09-23T20:59:07.433Z,15.86
2022-09-23T21:01:36.960Z,15.85
2022-09-23T21:04:07.560Z,15.83
2022-09-23T21:06:35.764Z,15.85
2022-09-23T21:09:04.082Z,15.90
2022-09-23T21:11:32.080Z,15.94
2022-09-23T21:14:01.455Z,15.98
2022-09-23T21:16:29.621Z,15.91
2022-09-23T21:18:58.574Z,15.86
2022-09-23T21:21:27.902Z,15.86
2022-09-23T21:24:07.026Z,15.80
2022-09-23T21:26:47.278Z,15.73
2022-09-23T21:29:14.917Z,15.70
2022-09-23T21:31:42.680Z,15.74
2022-09-23T21:34:12.470Z,15.74
2022-09-23T21:36:43.993Z,15.74
2022-09-23T21:39:12.772Z,15.76
2022-09-23T21:41:41.113Z,15.77
2022-09-23T21:44:08.968Z,15.76
2022-09-23T21:46:37.431Z,15.78
2022-09-23T21:49:05.924Z,15.72
2022-09-23T21:51:40.665Z,15.72
2022-09-23T21:54:13.534Z,15.66
2022-09-23T21:56:41.387Z,15.64
2022-09-23T21:59:09.309Z,15.62
2022-09-23T22:01:38.892Z,15.56
2022-09-23T22:04:10.205Z,15.57
2022-09-23T22:06:40.248Z,15.60
2022-09-23T22:09:12.778Z,15.63
2022-09-23T22:11:58.682Z,15.55
2022-09-23T22:14:27.177Z,15.54
2022-09-23T22:16:57.213Z,15.54
2022-09-23T22:19:27.107Z,15.52
2022-09-23T22:21:55.884Z,15.50
2022-09-23T22:24:25.226Z,15.49
2022-09-23T22:26:53.207Z,15.43
2022-09-23T22:29:38.445Z,15.46
2022-09-23T22:32:28.392Z,15.42
2022-09-23T22:34:56.079Z,15.43
2022-09-23T22:37:27.193Z,15.54
2022-09-23T22:39:56.225Z,15.53
2022-09-23T22:42:24.049Z,15.51
2022-09-23T22:44:52.498Z,15.46
2022-09-23T22:47:21.172Z,15.47
2022-09-23T22:49:49.146Z,15.53
2022-09-23T22:52:21.182Z,15.63
2022-09-23T22:54:48.906Z,15.60
2022-09-23T22:57:19.184Z,15.65
2022-09-23T22:59:48.018Z,15.64
2022-09-23T23:02:16.562Z,15.62
2022-09-23T23:04:45.400Z,15.64
2022-09-23T23:07:14.327Z,15.64
2022-09-23T23:09:42.133Z,15.62
2022-09-23T23:12:09.754Z,15.58
2022-09-23T23:14:39.095Z,15.51
2022-09-23T23:17:07.550Z,15.56
2022-09-23T23:19:37.067Z,15.55
2022-09-23T23:22:05.182Z,15.57
2022-09-23T23:24:32.790Z,15.51
2022-09-23T23:27:00.463Z,15.42
2022-09-23T23:29:28.100Z,15.39
2022-09-23T23:31:57.167Z,15.37
2022-09-23T23:34:24.808Z,15.41
2022-09-23T23:36:54.786Z,15.40
2022-09-23T23:39:24.580Z,15.46
2022-09-23T23:41:54.849Z,15.46
2022-09-23T23:44:23.537Z,15.44
2022-09-23T23:46:51.323Z,15.42
2022-09-23T23:49:20.486Z,15.41
2022-09-23T23:51:48.299Z,15.34
2022-09-23T23:54:16.429Z,15.37
2022-09-23T23:56:44.575Z,15.31
2022-09-23T23:59:12.451Z,15.35
